Time,TemperatureF,DewpointF,PressureIn,WindDirection,WindDirectionDegrees,WindSpeedMPH,WindSpeedGustMPH,Humidity,HourlyPrecipIn,Conditions,Clouds,dailyrainin,SoftwareType,DateUTC
2013-07-16 00:01:00,75.0,73.8,30.19,West,271,0.0,0.0,96,0.00,,,0.00,WUHU216DAVISWMX,2013-07-16 04:01:00,
2013-07-16 00:06:00,75.1,73.9,30.19,West,271,0.0,0.0,96,0.00,,,0.00,WUHU216DAVISWMX,2013-07-16 04:06:00,
2013-07-16 00:11:00,74.9,73.7,30.19,West,272,0.0,0.0,96,0.00,,,0.00,WUHU216DAVISWMX,2013-07-16 04:11:00,
2013-07-16 00:16:00,74.8,73.6,30.19,West,271,0.0,0.0,96,0.00,,,0.00,WUHU216DAVISWMX,2013-07-16 04:16:00,
2013-07-16 00:21:00,74.7,73.5,30.19,West,271,0.0,1.0,96,0.00,,,0.00,WUHU216DAVISWMX,2013-07-16 04:21:00,
2013-07-16 00:26:00,74.5,73.6,30.19,West,271,0.0,1.0,97,0.00,,,0.00,WUHU216DAVISWMX,2013-07-16 04:26:00,
2013-07-16 00:31:00,74.3,73.1,30.19,West,271,0.0,1.0,96,0.00,,,0.00,WUHU216DAVISWMX,2013-07-16 04:31:00,
2013-07-16 00:36:00,74.2,73.0,30.19,West,271,0.0,0.0,96,0.00,,,0.00,WUHU216DAVISWMX,2013-07-16 04:36:00,
2013-07-16 00:41:00,74.1,72.9,30.19,West,271,0.0,0.0,96,0.00,,,0.00,WUHU216DAVISWMX,2013-07-16 04:41:00,
2013-07-16 00:46:00,74.2,73.0,30.19,West,271,0.0,0.0,96,0.00,,,0.00,WUHU216DAVISWMX,2013-07-16 04:46:00,
2013-07-16 00:51:00,74.1,72.9,30.19,West,271,0.0,0.0,96,0.00,,,0.00,WUHU216DAVISWMX,2013-07-16 04:51:00,
2013-07-16 00:56:00,73.9,72.7,30.19,West,271,0.0,0.0,96,0.00,,,0.00,WUHU216DAVISWMX,2013-07-16 04:56:00,
2013-07-16 01:01:00,73.8,72.9,30.19,West,271,0.0,1.0,97,0.00,,,0.00,WUHU216DAVISWMX,2013-07-16 05:01:00,
2013-07-16 01:06:00,73.6,72.7,30.19,West,271,0.0,1.0,97,0.00,,,0.00,WUHU216DAVISWMX,2013-07-16 05:06:00,
2013-07-16 01:11:00,73.6,72.4,30.19,West,271,0.0,0.0,96,0.00,,,0.00,WUHU216DAVISWMX,2013-07-16 05:11:00,
2013-07-16 01:16:00,73.5,72.6,30.19,West,271,0.0,0.0,97,0.00,,,0.00,WUHU216DAVISWMX,2013-07-16 05:16:00,
2013-07-16 01:21:00,73.1,72.2,30.19,West,271,0.0,0.0,97,0.00,,,0.00,WUHU216DAVISWMX,2013-07-16 05:21:00,
2013-07-16 01:26:00,73.0,72.1,30.19,West,271,0.0,0.0,97,0.00,,,0.00,WUHU216DAVISWMX,2013-07-16 05:26:00,
2013-07-16 01:31:00,73.1,72.2,30.19,West,271,0.0,0.0,97,0.00,,,0.00,WUHU216DAVISWMX,2013-07-16 05:31:00,
2013-07-16 01:36:00,72.9,72.0,30.19,West,271,0.0,0.0,97,0.00,,,0.00,WUHU216DAVISWMX,2013-07-16 05:36:00,
2013-07-16 01:41:00,72.8,71.9,30.19,West,271,0.0,0.0,97,0.00,,,0.00,WUHU216DAVISWMX,2013-07-16 05:41:00,
2013-07-16 01:46:00,72.6,71.7,30.19,West,271,0.0,0.0,97,0.00,,,0.00,WUHU216DAVISWMX,2013-07-16 05:46:00,
2013-07-16 01:51:00,72.6,71.7,30.19,West,271,0.0,0.0,97,0.00,,,0.00,WUHU216DAVISWMX,2013-07-16 05:51:00,
2013-07-16 01:56:00,72.3,71.4,30.19,West,271,0.0,0.0,97,0.00,,,0.00,WUHU216DAVISWMX,2013-07-16 05:56:00,
2013-07-16 02:01:00,72.1,71.2,30.19,West,271,0.0,0.0,97,0.00,,,0.00,WUHU216DAVISWMX,2013-07-16 06:01:00,
2013-07-16 02:06:00,72.3,71.1,30.19,West,271,0.0,0.0,96,0.00,,,0.00,WUHU216DAVISWMX,2013-07-16 06:06:00,
2013-07-16 02:11:00,72.1,71.2,30.19,West,271,0.0,0.0,97,0.00,,,0.00,WUHU216DAVISWMX,2013-07-16 06:11:00,
2013-07-16 02:16:00,71.7,70.8,30.19,West,271,0.0,0.0,97,0.00,,,0.00,WUHU216DAVISWMX,2013-07-16 06:16:00,
2013-07-16 02:21:00,71.9,71.0,30.19,West,271,0.0,0.0,97,0.00,,,0.00,WUHU216DAVISWMX,2013-07-16 06:21:00,
2013-07-16 02:26:00,71.6,70.7,30.19,West,272,0.0,0.0,97,0.00,,,0.00,WUHU216DAVISWMX,2013-07-16 06:26:00,
2013-07-16 02:31:00,71.7,70.8,30.19,West,271,0.0,0.0,97,0.00,,,0.00,WUHU216DAVISWMX,2013-07-16 06:31:00,
2013-07-16 02:36:00,71.5,70.6,30.19,West,271,0.0,0.0,97,0.00,,,0.00,WUHU216DAVISWMX,2013-07-16 06:36:00,
2013-07-16 02:41:00,71.5,70.9,30.19,West,271,0.0,0.0,98,0.00,,,0.00,WUHU216DAVISWMX,2013-07-16 06:41:00,
2013-07-16 02:46:00,71.1,70.5,30.18,West,271,0.0,0.0,98,0.00,,,0.00,WUHU216DAVISWMX,2013-07-16 06:46:00,
2013-07-16 02:51:00,71.2,70.6,30.18,West,271,0.0,0.0,98,0.00,,,0.00,WUHU216DAVISWMX,2013-07-16 06:51:00,
2013-07-16 02:56:00,71.1,70.5,30.18,West,271,0.0,0.0,98,0.00,,,0.00,WUHU216DAVISWMX,2013-07-16 06:56:00,
2013-07-16 03:01:00,71.0,70.4,30.18,West,271,0.0,0.0,98,0.00,,,0.00,WUHU216DAVISWMX,2013-07-16 07:01:00,
2013-07-16 03:06:00,70.9,70.3,30.18,West,271,0.0,0.0,98,0.00,,,0.00,WUHU216DAVISWMX,2013-07-16 07:06:00,
2013-07-16 03:11:00,70.7,70.1,30.18,West,271,0.0,0.0,98,0.00,,,0.00,WUHU216DAVISWMX,2013-07-16 07:11:00,
2013-07-16 03:16:00,70.6,70.0,30.18,West,271,0.0,0.0,98,0.00,,,0.00,WUHU216DAVISWMX,2013-07-16 07:16:00,
2013-07-16 03:21:00,70.5,69.9,30.18,West,271,0.0,0.0,98,0.00,,,0.00,WUHU216DAVISWMX,2013-07-16 07:21:00,
2013-07-16 03:26:00,70.5,69.9,30.18,West,271,0.0,0.0,98,0.00,,,0.00,WUHU216DAVISWMX,2013-07-16 07:26:00,
2013-07-16 03:31:00,70.4,69.8,30.18,West,271,0.0,0.0,98,0.00,,,0.00,WUHU216DAVISWMX,2013-07-16 07:31:00,
2013-07-16 03:36:00,70.3,69.7,30.18,West,271,0.0,0.0,98,0.00,,,0.00,WUHU216DAVISWMX,2013-07-16 07:36:00,
2013-07-16 03:41:00,69.9,69.3,30.18,West,271,0.0,0.0,98,0.00,,,0.00,WUHU216DAVISWMX,2013-07-16 07:41:00,
2013-07-16 03:46:00,70.1,69.8,30.18,West,271,0.0,0.0,99,0.00,,,0.00,WUHU216DAVISWMX,2013-07-16 07:46:00,
2013-07-16 03:51:00,70.1,69.8,30.18,West,271,0.0,0.0,99,0.00,,,0.00,WUHU216DAVISWMX,2013-07-16 07:51:00,
2013-07-16 03:56:00,69.9,69.6,30.18,West,272,0.0,0.0,99,0.00,,,0.00,WUHU216DAVISWMX,2013-07-16 07:56:00,
2013-07-16 04:01:00,69.7,69.1,30.18,West,271,0.0,0.0,98,0.00,,,0.00,WUHU216DAVISWMX,2013-07-16 08:01:00,
2013-07-16 04:06:00,69.8,69.5,30.18,West,271,0.0,0.0,99,0.00,,,0.00,WUHU216DAVISWMX,2013-07-16 08:06:00,
2013-07-16 04:11:00,69.8,69.5,30.18,West,272,0.0,0.0,99,0.00,,,0.00,WUHU216DAVISWMX,2013-07-16 08:11:00,
2013-07-16 04:16:00,69.5,69.2,30.18,West,272,0.0,0.0,99,0.00,,,0.00,WUHU216DAVISWMX,2013-07-16 08:16:00,
2013-07-16 04:21:00,69.6,69.3,30.18,West,271,0.0,0.0,99,0.00,,,0.00,WUHU216DAVISWMX,2013-07-16 08:21:00,
2013-07-16 04:26:00,69.3,69.0,30.18,West,271,0.0,0.0,99,0.00,,,0.00,WUHU216DAVISWMX,2013-07-16 08:26:00,
2013-07-16 04:31:00,69.3,69.0,30.18,West,272,0.0,0.0,99,0.00,,,0.00,WUHU216DAVISWMX,2013-07-16 08:31:00,
2013-07-16 04:36:00,69.3,69.0,30.18,West,271,0.0,0.0,99,0.00,,,0.00,WUHU216DAVISWMX,2013-07-16 08:36:00,
2013-07-16 04:41:00,69.1,68.8,30.18,West,271,0.0,0.0,99,0.00,,,0.00,WUHU216DAVISWMX,2013-07-16 08:41:00,
2013-07-16 04:46:00,69.0,68.7,30.18,West,271,0.0,0.0,99,0.00,,,0.00,WUHU216DAVISWMX,2013-07-16 08:46:00,
2013-07-16 04:51:00,69.1,68.8,30.18,West,271,0.0,0.0,99,0.00,,,0.00,WUHU216DAVISWMX,2013-07-16 08:51:00,
2013-07-16 04:56:00,68.9,68.9,30.18,West,271,0.0,0.0,100,0.00,,,0.00,WUHU216DAVISWMX,2013-07-16 08:56:00,
2013-07-16 05:01:00,69.0,68.7,30.18,West,271,0.0,0.0,99,0.00,,,0.00,WUHU216DAVISWMX,2013-07-16 09:01:00,
2013-07-16 05:06:00,68.9,68.9,30.18,West,271,0.0,0.0,100,0.00,,,0.00,WUHU216DAVISWMX,2013-07-16 09:06:00,
2013-07-16 05:11:00,68.9,68.9,30.19,West,271,0.0,0.0,100,0.00,,,0.00,WUHU216DAVISWMX,2013-07-16 09:11:00,
2013-07-16 05:16:00,68.6,68.3,30.19,West,271,0.0,0.0,99,0.00,,,0.00,WUHU216DAVISWMX,2013-07-16 09:16:00,
2013-07-16 05:21:00,68.5,68.2,30.19,West,271,0.0,0.0,99,0.00,,,0.00,WUHU216DAVISWMX,2013-07-16 09:21:00,
2013-07-16 05:26:00,68.5,68.2,30.19,West,271,0.0,0.0,99,0.00,,,0.00,WUHU216DAVISWMX,2013-07-16 09:26:00,
2013-07-16 05:31:00,68.5,68.5,30.19,West,271,0.0,0.0,100,0.00,,,0.00,WUHU216DAVISWMX,2013-07-16 09:31:00,
2013-07-16 05:36:00,68.6,68.6,30.19,West,271,0.0,0.0,100,0.00,,,0.00,WUHU216DAVISWMX,2013-07-16 09:36:00,
2013-07-16 05:41:00,68.6,68.3,30.19,West,271,0.0,0.0,99,0.00,,,0.00,WUHU216DAVISWMX,2013-07-16 09:41:00,
2013-07-16 05:46:00,68.4,68.4,30.19,West,271,0.0,0.0,100,0.00,,,0.00,WUHU216DAVISWMX,2013-07-16 09:46:00,
2013-07-16 05:51:00,68.5,68.5,30.19,West,271,0.0,0.0,100,0.00,,,0.00,WUHU216DAVISWMX,2013-07-16 09:51:00,
2013-07-16 05:56:00,68.2,68.2,30.19,West,271,0.0,0.0,100,0.00,,,0.00,WUHU216DAVISWMX,2013-07-16 09:56:00,
2013-07-16 06:01:00,68.3,68.3,30.19,West,271,0.0,0.0,100,0.00,,,0.00,WUHU216DAVISWMX,2013-07-16 10:01:00,
2013-07-16 06:06:00,68.5,68.5,30.20,West,271,0.0,0.0,100,0.00,,,0.00,WUHU216DAVISWMX,2013-07-16 10:06:00,
2013-07-16 06:11:00,68.3,68.3,30.20,West,272,0.0,0.0,100,0.00,,,0.00,WUHU216DAVISWMX,2013-07-16 10:11:00,
2013-07-16 06:16:00,68.5,68.5,30.20,West,272,0.0,0.0,100,0.00,,,0.00,WUHU216DAVISWMX,2013-07-16 10:16:00,
2013-07-16 06:21:00,68.5,68.5,30.20,West,271,0.0,0.0,100,0.00,,,0.00,WUHU216DAVISWMX,2013-07-16 10:21:00,
2013-07-16 06:26:00,68.5,68.5,30.20,West,271,0.0,0.0,100,0.00,,,0.00,WUHU216DAVISWMX,2013-07-16 10:26:00,
2013-07-16 06:31:00,68.5,68.5,30.20,West,271,0.0,0.0,100,0.00,,,0.00,WUHU216DAVISWMX,2013-07-16 10:31:00,
2013-07-16 06:36:00,68.7,68.7,30.20,West,271,0.0,0.0,100,0.00,,,0.00,WUHU216DAVISWMX,2013-07-16 10:36:00,
2013-07-16 06:41:00,68.9,68.9,30.20,West,271,0.0,0.0,100,0.00,,,0.00,WUHU216DAVISWMX,2013-07-16 10:41:00,
2013-07-16 06:46:00,69.0,69.0,30.20,West,271,0.0,0.0,100,0.00,,,0.00,WUHU216DAVISWMX,2013-07-16 10:46:00,
2013-07-16 06:51:00,69.2,69.2,30.20,West,271,0.0,0.0,100,0.00,,,0.00,WUHU216DAVISWMX,2013-07-16 10:51:00,
2013-07-16 06:56:00,69.2,69.2,30.20,West,271,0.0,0.0,100,0.00,,,0.00,WUHU216DAVISWMX,2013-07-16 10:56:00,
2013-07-16 07:01:00,69.6,69.6,30.20,West,271,0.0,0.0,100,0.00,,,0.00,WUHU216DAVISWMX,2013-07-16 11:01:00,
2013-07-16 07:07:00,69.6,69.6,30.20,West,271,0.0,0.0,100,0.00,,,0.00,WUHU216DAVISWMX,2013-07-16 11:07:00,
2013-07-16 07:12:00,70.2,70.2,30.20,West,271,0.0,0.0,100,0.00,,,0.00,WUHU216DAVISWMX,2013-07-16 11:12:00,
2013-07-16 07:17:00,70.4,70.4,30.20,West,271,0.0,0.0,100,0.00,,,0.00,WUHU216DAVISWMX,2013-07-16 11:17:00,
2013-07-16 07:22:00,70.7,70.7,30.20,West,271,0.0,0.0,100,0.00,,,0.00,WUHU216DAVISWMX,2013-07-16 11:22:00,
2013-07-16 07:27:00,70.8,70.8,30.20,West,271,0.0,0.0,100,0.00,,,0.00,WUHU216DAVISWMX,2013-07-16 11:27:00,
2013-07-16 07:32:00,71.0,71.0,30.20,West,271,0.0,0.0,100,0.00,,,0.00,WUHU216DAVISWMX,2013-07-16 11:32:00,
2013-07-16 07:37:00,71.6,71.6,30.20,West,271,0.0,0.0,100,0.00,,,0.00,WUHU216DAVISWMX,2013-07-16 11:37:00,
2013-07-16 07:42:00,71.8,71.8,30.21,West,271,0.0,0.0,100,0.00,,,0.00,WUHU216DAVISWMX,2013-07-16 11:42:00,
2013-07-16 07:47:00,72.2,72.2,30.21,West,271,0.0,0.0,100,0.00,,,0.00,WUHU216DAVISWMX,2013-07-16 11:47:00,
2013-07-16 07:52:00,72.9,72.9,30.21,West,271,0.0,0.0,100,0.00,,,0.00,WUHU216DAVISWMX,2013-07-16 11:52:00,
2013-07-16 07:57:00,73.0,72.7,30.21,West,271,0.0,0.0,99,0.00,,,0.00,WUHU216DAVISWMX,2013-07-16 11:57:00,
2013-07-16 08:02:00,73.5,73.2,30.21,West,271,0.0,0.0,99,0.00,,,0.00,WUHU216DAVISWMX,2013-07-16 12:02:00,
2013-07-16 08:07:00,73.5,72.9,30.21,West,271,0.0,1.0,98,0.00,,,0.00,WUHU216DAVISWMX,2013-07-16 12:07:00,
2013-07-16 08:12:00,73.8,72.9,30.21,West,271,0.0,1.0,97,0.00,,,0.00,WUHU216DAVISWMX,2013-07-16 12:12:00,
2013-07-16 08:17:00,74.2,73.0,30.21,West,271,0.0,1.0,96,0.00,,,0.00,WUHU216DAVISWMX,2013-07-16 12:17:00,
2013-07-16 08:22:00,74.4,73.5,30.21,West,271,0.0,1.0,97,0.00,,,0.00,WUHU216DAVISWMX,2013-07-16 12:22:00,
2013-07-16 08:27:00,74.5,73.6,30.21,West,271,0.0,0.0,97,0.00,,,0.00,WUHU216DAVISWMX,2013-07-16 12:27:00,
2013-07-16 08:32:00,74.5,73.6,30.21,West,272,0.0,0.0,97,0.00,,,0.00,WUHU216DAVISWMX,2013-07-16 12:32:00,
2013-07-16 08:37:00,74.7,74.1,30.21,West,271,0.0,0.0,98,0.00,,,0.00,WUHU216DAVISWMX,2013-07-16 12:37:00,
2013-07-16 08:42:00,75.0,73.8,30.21,West,271,0.0,0.0,96,0.00,,,0.00,WUHU216DAVISWMX,2013-07-16 12:42:00,
2013-07-16 08:47:00,76.0,74.7,30.21,West,271,0.0,0.0,96,0.00,,,0.00,WUHU216DAVISWMX,2013-07-16 12:47:00,
2013-07-16 08:52:00,76.8,75.5,30.21,West,271,0.0,0.0,96,0.00,,,0.00,WUHU216DAVISWMX,2013-07-16 12:52:00,
2013-07-16 08:57:00,78.1,75.2,30.20,West,271,0.0,0.0,91,0.00,,,0.00,WUHU216DAVISWMX,2013-07-16 12:57:00,
2013-07-16 09:02:00,79.1,75.9,30.21,West,271,0.0,1.0,90,0.00,,,0.00,WUHU216DAVISWMX,2013-07-16 13:02:00,
2013-07-16 09:07:00,79.8,76.3,30.21,West,271,0.0,1.0,89,0.00,,,0.00,WUHU216DAVISWMX,2013-07-16 13:07:00,
2013-07-16 09:12:00,80.8,76.3,30.21,West,271,0.0,0.0,86,0.00,,,0.00,WUHU216DAVISWMX,2013-07-16 13:12:00,
2013-07-16 09:17:00,81.6,77.0,30.20,West,271,0.0,0.0,86,0.00,,,0.00,WUHU216DAVISWMX,2013-07-16 13:17:00,
2013-07-16 09:22:00,82.3,76.7,30.21,WNW,283,0.0,2.0,83,0.00,,,0.00,WUHU216DAVISWMX,2013-07-16 13:22:00,
2013-07-16 09:27:00,83.0,76.3,30.20,NW,314,1.0,4.0,80,0.00,,,0.00,WUHU216DAVISWMX,2013-07-16 13:27:00,
2013-07-16 09:32:00,83.6,77.3,30.20,NW,314,0.0,4.0,81,0.00,,,0.00,WUHU216DAVISWMX,2013-07-16 13:32:00,
2013-07-16 09:37:00,84.0,77.3,30.20,NW,314,1.0,4.0,80,0.00,,,0.00,WUHU216DAVISWMX,2013-07-16 13:37:00,
2013-07-16 09:42:00,84.4,76.9,30.20,NW,314,0.0,2.0,78,0.00,,,0.00,WUHU216DAVISWMX,2013-07-16 13:42:00,
2013-07-16 09:47:00,84.9,77.1,30.20,NW,314,0.0,2.0,77,0.00,,,0.00,WUHU216DAVISWMX,2013-07-16 13:47:00,
2013-07-16 09:52:00,85.6,77.0,30.20,NNE,32,1.0,3.0,75,0.00,,,0.00,WUHU216DAVISWMX,2013-07-16 13:52:00,
2013-07-16 09:57:00,85.7,75.9,30.20,NNE,32,0.0,3.0,72,0.00,,,0.00,WUHU216DAVISWMX,2013-07-16 13:57:00,
2013-07-16 10:02:00,86.1,77.5,30.20,NNE,28,0.0,2.0,75,0.00,,,0.00,WUHU216DAVISWMX,2013-07-16 14:02:00,
2013-07-16 10:07:00,86.7,77.6,30.20,NNE,28,1.0,2.0,74,0.00,,,0.00,WUHU216DAVISWMX,2013-07-16 14:07:00,
2013-07-16 10:12:00,87.1,78.4,30.20,NW,323,0.0,3.0,75,0.00,,,0.00,WUHU216DAVISWMX,2013-07-16 14:12:00,
2013-07-16 10:17:00,87.3,78.2,30.20,NW,323,0.0,3.0,74,0.00,,,0.00,WUHU216DAVISWMX,2013-07-16 14:17:00,
2013-07-16 10:22:00,87.6,78.1,30.20,NW,318,0.0,2.0,73,0.00,,,0.00,WUHU216DAVISWMX,2013-07-16 14:22:00,
2013-07-16 10:27:00,88.0,78.5,30.20,NW,318,0.0,2.0,73,0.00,,,0.00,WUHU216DAVISWMX,2013-07-16 14:27:00,
2013-07-16 10:32:00,88.0,77.7,30.20,NNW,347,0.0,2.0,71,0.00,,,0.00,WUHU216DAVISWMX,2013-07-16 14:32:00,
2013-07-16 10:37:00,88.5,77.3,30.20,NNW,343,1.0,2.0,69,0.00,,,0.00,WUHU216DAVISWMX,2013-07-16 14:37:00,
2013-07-16 10:42:00,88.6,77.4,30.20,North,1,2.0,2.0,69,0.00,,,0.00,WUHU216DAVISWMX,2013-07-16 14:42:00,
2013-07-16 10:47:00,88.6,77.4,30.20,NNE,14,0.0,3.0,69,0.00,,,0.00,WUHU216DAVISWMX,2013-07-16 14:47:00,
2013-07-16 10:52:00,88.9,78.1,30.20,NNE,14,0.0,3.0,70,0.00,,,0.00,WUHU216DAVISWMX,2013-07-16 14:52:00,
2013-07-16 10:57:00,89.2,78.8,30.19,SW,224,0.0,3.0,71,0.00,,,0.00,WUHU216DAVISWMX,2013-07-16 14:57:00,
2013-07-16 11:02:00,89.5,78.7,30.19,SW,225,1.0,3.0,70,0.00,,,0.00,WUHU216DAVISWMX,2013-07-16 15:02:00,
2013-07-16 11:07:00,89.5,78.7,30.19,NNE,24,2.0,3.0,70,0.00,,,0.00,WUHU216DAVISWMX,2013-07-16 15:07:00,
2013-07-16 11:12:00,89.7,78.0,30.19,NW,322,2.0,3.0,68,0.00,,,0.00,WUHU216DAVISWMX,2013-07-16 15:12:00,
2013-07-16 11:17:00,89.8,79.0,30.20,NNW,341,1.0,4.0,70,0.00,,,0.00,WUHU216DAVISWMX,2013-07-16 15:17:00,
2013-07-16 11:22:00,89.8,77.2,30.19,ENE,74,1.0,4.0,66,0.00,,,0.00,WUHU216DAVISWMX,2013-07-16 15:22:00,
2013-07-16 11:27:00,89.8,77.2,30.20,SSW,199,2.0,3.0,66,0.00,,,0.00,WUHU216DAVISWMX,2013-07-16 15:27:00,
2013-07-16 11:32:00,89.9,76.9,30.19,North,359,1.0,3.0,65,0.00,,,0.00,WUHU216DAVISWMX,2013-07-16 15:32:00,
2013-07-16 11:37:00,89.8,76.8,30.19,NNE,20,1.0,5.0,65,0.00,,,0.00,WUHU216DAVISWMX,2013-07-16 15:37:00,
2013-07-16 11:42:00,89.7,75.3,30.19,NNE,21,2.0,5.0,62,0.00,,,0.00,WUHU216DAVISWMX,2013-07-16 15:42:00,
2013-07-16 11:47:00,89.7,74.3,30.19,North,5,1.0,4.0,60,0.00,,,0.00,WUHU216DAVISWMX,2013-07-16 15:47:00,
2013-07-16 11:52:00,89.6,74.7,30.19,North,0,2.0,4.0,61,0.00,,,0.00,WUHU216DAVISWMX,2013-07-16 15:52:00,
2013-07-16 11:57:00,89.6,74.2,30.19,North,0,1.0,4.0,60,0.00,,,0.00,WUHU216DAVISWMX,2013-07-16 15:57:00,
2013-07-16 12:02:00,89.7,74.8,30.19,WNW,300,1.0,4.0,61,0.00,,,0.00,WUHU216DAVISWMX,2013-07-16 16:02:00,
2013-07-16 12:07:00,89.9,75.9,30.19,NW,326,1.0,3.0,63,0.00,,,0.00,WUHU216DAVISWMX,2013-07-16 16:07:00,
2013-07-16 12:12:00,90.1,75.1,30.19,NW,311,1.0,4.0,61,0.00,,,0.00,WUHU216DAVISWMX,2013-07-16 16:12:00,
2013-07-16 12:17:00,90.2,75.7,30.19,NW,311,0.0,4.0,62,0.00,,,0.00,WUHU216DAVISWMX,2013-07-16 16:17:00,
2013-07-16 12:22:00,90.3,75.8,30.19,East,82,3.0,3.0,62,0.00,,,0.00,WUHU216DAVISWMX,2013-07-16 16:22:00,
2013-07-16 12:27:00,90.5,76.0,30.19,North,7,0.0,3.0,62,0.00,,,0.00,WUHU216DAVISWMX,2013-07-16 16:27:00,
2013-07-16 12:32:00,90.5,76.0,30.19,NNE,17,0.0,3.0,62,0.00,,,0.00,WUHU216DAVISWMX,2013-07-16 16:32:00,
2013-07-16 12:37:00,90.3,74.8,30.19,North,7,1.0,3.0,60,0.00,,,0.00,WUHU216DAVISWMX,2013-07-16 16:37:00,
2013-07-16 12:42:00,90.1,75.6,30.19,NNE,33,0.0,5.0,62,0.00,,,0.00,WUHU216DAVISWMX,2013-07-16 16:42:00,
2013-07-16 12:47:00,90.3,75.8,30.19,NE,43,4.0,6.0,62,0.00,,,0.00,WUHU216DAVISWMX,2013-07-16 16:47:00,
2013-07-16 12:52:00,90.4,76.4,30.18,SSE,151,2.0,6.0,63,0.00,,,0.00,WUHU216DAVISWMX,2013-07-16 16:52:00,
2013-07-16 12:57:00,90.6,77.1,30.18,NE,37,2.0,3.0,64,0.00,,,0.00,WUHU216DAVISWMX,2013-07-16 16:57:00,
2013-07-16 13:02:00,90.7,75.7,30.18,NNE,32,4.0,5.0,61,0.00,,,0.00,WUHU216DAVISWMX,2013-07-16 17:02:00,
2013-07-16 13:07:00,90.3,76.8,30.18,NW,314,0.0,5.0,64,0.00,,,0.00,WUHU216DAVISWMX,2013-07-16 17:07:00,
2013-07-16 13:12:00,90.0,76.5,30.18,NNE,13,1.0,3.0,64,0.00,,,0.00,WUHU216DAVISWMX,2013-07-16 17:12:00,
2013-07-16 13:17:00,90.1,77.1,30.18,NNE,13,0.0,2.0,65,0.00,,,0.00,WUHU216DAVISWMX,2013-07-16 17:17:00,
2013-07-16 13:22:00,90.1,75.6,30.18,NNE,13,0.0,2.0,62,0.00,,,0.00,WUHU216DAVISWMX,2013-07-16 17:22:00,
2013-07-16 13:27:00,90.3,75.3,30.18,NNE,13,2.0,2.0,61,0.00,,,0.00,WUHU216DAVISWMX,2013-07-16 17:27:00,
2013-07-16 13:32:00,90.2,75.2,30.18,NNE,13,1.0,2.0,61,0.00,,,0.00,WUHU216DAVISWMX,2013-07-16 17:32:00,
2013-07-16 13:37:00,90.0,76.0,30.18,NNE,23,3.0,3.0,63,0.00,,,0.00,WUHU216DAVISWMX,2013-07-16 17:37:00,
2013-07-16 13:42:00,90.0,77.0,30.18,NNW,331,1.0,3.0,65,0.00,,,0.00,WUHU216DAVISWMX,2013-07-16 17:42:00,
2013-07-16 13:47:00,90.2,76.2,30.18,NNW,347,0.0,4.0,63,0.00,,,0.00,WUHU216DAVISWMX,2013-07-16 17:47:00,
2013-07-16 13:52:00,90.2,75.7,30.18,North,0,4.0,4.0,62,0.00,,,0.00,WUHU216DAVISWMX,2013-07-16 17:52:00,
2013-07-16 13:57:00,90.1,76.1,30.18,NNE,19,0.0,4.0,63,0.00,,,0.00,WUHU216DAVISWMX,2013-07-16 17:57:00,
2013-07-16 14:02:00,90.2,75.2,30.18,NNE,19,2.0,4.0,61,0.00,,,0.00,WUHU216DAVISWMX,2013-07-16 18:02:00,
2013-07-16 14:07:00,90.2,74.7,30.17,North,5,1.0,4.0,60,0.00,,,0.00,WUHU216DAVISWMX,2013-07-16 18:07:00,
2013-07-16 14:12:00,90.4,75.9,30.18,SSE,163,0.0,3.0,62,0.00,,,0.00,WUHU216DAVISWMX,2013-07-16 18:12:00,
2013-07-16 14:17:00,90.7,75.2,30.17,NW,318,2.0,5.0,60,0.00,,,0.00,WUHU216DAVISWMX,2013-07-16 18:17:00,
2013-07-16 14:22:00,90.5,75.0,30.17,North,5,2.0,5.0,60,0.00,,,0.00,WUHU216DAVISWMX,2013-07-16 18:22:00,
2013-07-16 14:27:00,90.5,75.5,30.18,North,3,1.0,3.0,61,0.00,,,0.00,WUHU216DAVISWMX,2013-07-16 18:27:00,
2013-07-16 14:32:00,90.5,75.5,30.18,NNE,24,2.0,3.0,61,0.00,,,0.00,WUHU216DAVISWMX,2013-07-16 18:32:00,
2013-07-16 14:37:00,90.5,75.0,30.17,NNW,346,1.0,3.0,60,0.00,,,0.00,WUHU216DAVISWMX,2013-07-16 18:37:00,
2013-07-16 14:42:00,90.9,75.9,30.17,NW,323,2.0,6.0,61,0.00,,,0.00,WUHU216DAVISWMX,2013-07-16 18:42:00,
2013-07-16 14:47:00,90.8,75.3,30.17,North,3,2.0,6.0,60,0.00,,,0.00,WUHU216DAVISWMX,2013-07-16 18:47:00,
2013-07-16 14:52:00,90.7,77.6,30.17,North,10,0.0,3.0,65,0.00,,,0.00,WUHU216DAVISWMX,2013-07-16 18:52:00,
2013-07-16 14:57:00,90.8,75.3,30.17,North,0,1.0,3.0,60,0.00,,,0.00,WUHU216DAVISWMX,2013-07-16 18:57:00,
2013-07-16 15:02:00,91.1,75.6,30.17,NW,310,2.0,3.0,60,0.00,,,0.00,WUHU216DAVISWMX,2013-07-16 19:02:00,
2013-07-16 15:07:00,90.8,75.8,30.17,NW,311,1.0,3.0,61,0.00,,,0.00,WUHU216DAVISWMX,2013-07-16 19:07:00,
2013-07-16 15:12:00,90.8,75.3,30.16,NW,311,1.0,2.0,60,0.00,,,0.00,WUHU216DAVISWMX,2013-07-16 19:12:00,
2013-07-16 15:17:00,90.9,75.9,30.16,North,357,0.0,2.0,61,0.00,,,0.00,WUHU216DAVISWMX,2013-07-16 19:17:00,
2013-07-16 15:22:00,90.9,75.9,30.17,ENE,72,1.0,3.0,61,0.00,,,0.00,WUHU216DAVISWMX,2013-07-16 19:22:00,
2013-07-16 15:27:00,91.0,76.0,30.16,ENE,72,1.0,3.0,61,0.00,,,0.00,WUHU216DAVISWMX,2013-07-16 19:27:00,
2013-07-16 15:32:00,91.1,75.6,30.17,NW,311,1.0,3.0,60,0.00,,,0.00,WUHU216DAVISWMX,2013-07-16 19:32:00,
2013-07-16 15:37:00,91.1,76.1,30.16,ESE,107,1.0,3.0,61,0.00,,,0.00,WUHU216DAVISWMX,2013-07-16 19:37:00,
2013-07-16 15:42:00,90.9,74.9,30.17,NE,43,1.0,3.0,59,0.00,,,0.00,WUHU216DAVISWMX,2013-07-16 19:42:00,
2013-07-16 15:47:00,90.6,75.6,30.16,NE,43,1.0,3.0,61,0.00,,,0.00,WUHU216DAVISWMX,2013-07-16 19:47:00,
2013-07-16 15:52:00,90.5,75.5,30.16,NNE,14,2.0,2.0,61,0.00,,,0.00,WUHU216DAVISWMX,2013-07-16 19:52:00,
2013-07-16 15:57:00,90.4,75.9,30.17,NNE,14,1.0,2.0,62,0.00,,,0.00,WUHU216DAVISWMX,2013-07-16 19:57:00,
2013-07-16 16:02:00,90.2,75.7,30.16,NNE,14,0.0,3.0,62,0.00,,,0.00,WUHU216DAVISWMX,2013-07-16 20:02:00,
2013-07-16 16:07:00,90.1,75.1,30.16,NNE,14,2.0,3.0,61,0.00,,,0.00,WUHU216DAVISWMX,2013-07-16 20:07:00,
2013-07-16 16:12:00,90.1,76.1,30.16,NNE,14,0.0,2.0,63,0.00,,,0.00,WUHU216DAVISWMX,2013-07-16 20:12:00,
2013-07-16 16:17:00,89.7,74.8,30.16,NW,306,2.0,4.0,61,0.00,,,0.00,WUHU216DAVISWMX,2013-07-16 20:17:00,
2013-07-16 16:22:00,89.7,75.3,30.16,NNW,328,0.0,7.0,62,0.00,,,0.00,WUHU216DAVISWMX,2013-07-16 20:22:00,
2013-07-16 16:27:00,89.7,75.3,30.16,NNW,336,0.0,7.0,62,0.00,,,0.00,WUHU216DAVISWMX,2013-07-16 20:27:00,
2013-07-16 16:32:00,89.7,75.3,30.16,NW,312,1.0,3.0,62,0.00,,,0.00,WUHU216DAVISWMX,2013-07-16 20:32:00,
2013-07-16 16:37:00,89.7,75.7,30.16,NW,321,1.0,6.0,63,0.00,,,0.00,WUHU216DAVISWMX,2013-07-16 20:37:00,
2013-07-16 16:42:00,89.7,75.7,30.16,NW,316,1.0,6.0,63,0.00,,,0.00,WUHU216DAVISWMX,2013-07-16 20:42:00,
2013-07-16 16:47:00,89.6,75.6,30.16,North,349,1.0,6.0,63,0.00,,,0.00,WUHU216DAVISWMX,2013-07-16 20:47:00,
2013-07-16 16:52:00,89.8,76.3,30.17,NNW,347,0.0,6.0,64,0.00,,,0.00,WUHU216DAVISWMX,2013-07-16 20:52:00,
2013-07-16 16:57:00,89.8,76.8,30.17,North,349,3.0,3.0,65,0.00,,,0.00,WUHU216DAVISWMX,2013-07-16 20:57:00,
2013-07-16 17:02:00,89.7,76.7,30.16,North,349,0.0,3.0,65,0.00,,,0.00,WUHU216DAVISWMX,2013-07-16 21:02:00,
2013-07-16 17:07:00,89.6,76.1,30.16,NNW,329,1.0,2.0,64,0.00,,,0.00,WUHU216DAVISWMX,2013-07-16 21:07:00,
2013-07-16 17:12:00,89.4,75.9,30.16,NNW,329,1.0,2.0,64,0.00,,,0.00,WUHU216DAVISWMX,2013-07-16 21:12:00,
2013-07-16 17:17:00,89.2,75.7,30.17,North,7,1.0,3.0,64,0.00,,,0.00,WUHU216DAVISWMX,2013-07-16 21:17:00,
2013-07-16 17:22:00,88.7,75.7,30.16,NNE,22,0.0,4.0,65,0.00,,,0.00,WUHU216DAVISWMX,2013-07-16 21:22:00,
2013-07-16 17:27:00,88.5,76.0,30.17,NNE,22,2.0,4.0,66,0.00,,,0.00,WUHU216DAVISWMX,2013-07-16 21:27:00,
2013-07-16 17:32:00,88.3,75.8,30.17,NNE,22,0.0,3.0,66,0.00,,,0.00,WUHU216DAVISWMX,2013-07-16 21:32:00,
2013-07-16 17:37:00,88.2,76.1,30.17,NNE,22,0.0,2.0,67,0.00,,,0.00,WUHU216DAVISWMX,2013-07-16 21:37:00,
2013-07-16 17:42:00,87.8,76.2,30.16,NNE,22,0.0,2.0,68,0.00,,,0.00,WUHU216DAVISWMX,2013-07-16 21:42:00,
2013-07-16 17:48:00,87.3,75.7,30.16,NNE,22,0.0,2.0,68,0.00,,,0.00,WUHU216DAVISWMX,2013-07-16 21:48:00,
2013-07-16 17:53:00,87.2,76.5,30.16,NNE,22,0.0,1.0,70,0.00,,,0.00,WUHU216DAVISWMX,2013-07-16 21:53:00,
2013-07-16 17:58:00,86.9,77.0,30.16,NNE,22,0.0,0.0,72,0.00,,,0.00,WUHU216DAVISWMX,2013-07-16 21:58:00,
2013-07-16 18:03:00,86.8,76.1,30.16,NNE,22,0.0,0.0,70,0.00,,,0.00,WUHU216DAVISWMX,2013-07-16 22:03:00,
2013-07-16 18:08:00,86.9,76.6,30.17,NNE,22,0.0,0.0,71,0.00,,,0.00,WUHU216DAVISWMX,2013-07-16 22:08:00,
2013-07-16 18:13:00,86.8,76.9,30.16,NNE,22,0.0,0.0,72,0.00,,,0.00,WUHU216DAVISWMX,2013-07-16 22:13:00,
2013-07-16 18:18:00,86.8,76.9,30.17,NNE,22,0.0,0.0,72,0.00,,,0.00,WUHU216DAVISWMX,2013-07-16 22:18:00,
2013-07-16 18:23:00,86.8,76.9,30.17,NNE,22,0.0,0.0,72,0.00,,,0.00,WUHU216DAVISWMX,2013-07-16 22:23:00,
2013-07-16 18:28:00,86.9,77.4,30.17,NNE,22,0.0,0.0,73,0.00,,,0.00,WUHU216DAVISWMX,2013-07-16 22:28:00,
2013-07-16 18:38:00,86.9,77.4,30.17,NNE,22,0.0,0.0,73,0.00,,,0.00,WUHU216DAVISWMX,2013-07-16 22:38:00,
2013-07-16 18:43:00,86.8,76.9,30.17,NW,318,0.0,3.0,72,0.00,,,0.00,WUHU216DAVISWMX,2013-07-16 22:43:00,
2013-07-16 18:48:00,86.7,76.8,30.17,NW,318,0.0,3.0,72,0.00,,,0.00,WUHU216DAVISWMX,2013-07-16 22:48:00,
2013-07-16 18:53:00,86.7,76.8,30.17,NW,318,1.0,1.0,72,0.00,,,0.00,WUHU216DAVISWMX,2013-07-16 22:53:00,
2013-07-16 18:58:00,86.4,76.1,30.17,NW,318,0.0,1.0,71,0.00,,,0.00,WUHU216DAVISWMX,2013-07-16 22:58:00,
2013-07-16 19:03:00,86.5,77.0,30.17,NW,318,0.0,1.0,73,0.00,,,0.00,WUHU216DAVISWMX,2013-07-16 23:03:00,
2013-07-16 19:08:00,86.3,76.4,30.17,NW,318,0.0,1.0,72,0.00,,,0.00,WUHU216DAVISWMX,2013-07-16 23:08:00,
2013-07-16 19:13:00,86.2,77.2,30.17,NW,318,0.0,0.0,74,0.00,,,0.00,WUHU216DAVISWMX,2013-07-16 23:13:00,
2013-07-16 19:18:00,86.1,77.5,30.17,NW,318,0.0,0.0,75,0.00,,,0.00,WUHU216DAVISWMX,2013-07-16 23:18:00,
2013-07-16 19:23:00,85.9,77.3,30.17,NW,318,0.0,0.0,75,0.00,,,0.00,WUHU216DAVISWMX,2013-07-16 23:23:00,
2013-07-16 19:28:00,85.7,77.5,30.18,NW,318,0.0,0.0,76,0.00,,,0.00,WUHU216DAVISWMX,2013-07-16 23:28:00,
2013-07-16 19:33:00,85.6,77.4,30.18,NW,318,0.0,0.0,76,0.00,,,0.00,WUHU216DAVISWMX,2013-07-16 23:33:00,
2013-07-16 19:38:00,85.4,77.9,30.18,NW,318,0.0,0.0,78,0.00,,,0.00,WUHU216DAVISWMX,2013-07-16 23:38:00,
2013-07-16 19:43:00,85.2,78.1,30.18,NW,318,0.0,0.0,79,0.00,,,0.00,WUHU216DAVISWMX,2013-07-16 23:43:00,
2013-07-16 19:48:00,85.1,77.6,30.18,NW,318,0.0,0.0,78,0.00,,,0.00,WUHU216DAVISWMX,2013-07-16 23:48:00,
2013-07-16 19:53:00,84.9,77.8,30.18,NW,318,0.0,0.0,79,0.00,,,0.00,WUHU216DAVISWMX,2013-07-16 23:53:00,
2013-07-16 19:58:00,84.7,77.6,30.18,NW,318,0.0,0.0,79,0.00,,,0.00,WUHU216DAVISWMX,2013-07-16 23:58:00,
2013-07-16 20:03:00,84.4,77.7,30.18,NW,318,0.0,0.0,80,0.00,,,0.00,WUHU216DAVISWMX,2013-07-17 00:03:00,
2013-07-16 20:08:00,84.1,77.8,30.18,NW,318,0.0,0.0,81,0.00,,,0.00,WUHU216DAVISWMX,2013-07-17 00:08:00,
2013-07-16 20:13:00,84.0,78.0,30.18,NW,318,0.0,0.0,82,0.00,,,0.00,WUHU216DAVISWMX,2013-07-17 00:13:00,
2013-07-16 20:18:00,83.7,77.4,30.18,NW,318,0.0,0.0,81,0.00,,,0.00,WUHU216DAVISWMX,2013-07-17 00:18:00,
2013-07-16 20:23:00,83.5,77.9,30.18,NW,318,0.0,0.0,83,0.00,,,0.00,WUHU216DAVISWMX,2013-07-17 00:23:00,
2013-07-16 20:28:00,83.3,77.7,30.18,NW,318,0.0,0.0,83,0.00,,,0.00,WUHU216DAVISWMX,2013-07-17 00:28:00,
2013-07-16 20:33:00,83.2,77.9,30.18,NW,318,0.0,0.0,84,0.00,,,0.00,WUHU216DAVISWMX,2013-07-17 00:33:00,
2013-07-16 20:38:00,82.8,77.9,30.19,NW,318,0.0,0.0,85,0.00,,,0.00,WUHU216DAVISWMX,2013-07-17 00:38:00,
2013-07-16 20:43:00,82.5,77.6,30.19,NW,318,0.0,0.0,85,0.00,,,0.00,WUHU216DAVISWMX,2013-07-17 00:43:00,
2013-07-16 20:48:00,82.4,77.8,30.19,NW,318,0.0,0.0,86,0.00,,,0.00,WUHU216DAVISWMX,2013-07-17 00:48:00,
2013-07-16 20:53:00,82.0,77.4,30.19,NW,318,0.0,0.0,86,0.00,,,0.00,WUHU216DAVISWMX,2013-07-17 00:53:00,
2013-07-16 20:58:00,81.8,77.2,30.19,NW,318,0.0,0.0,86,0.00,,,0.00,WUHU216DAVISWMX,2013-07-17 00:58:00,
2013-07-16 21:03:00,81.5,76.9,30.19,NW,318,0.0,0.0,86,0.00,,,0.00,WUHU216DAVISWMX,2013-07-17 01:03:00,
2013-07-16 21:08:00,81.5,76.9,30.20,NW,318,0.0,0.0,86,0.00,,,0.00,WUHU216DAVISWMX,2013-07-17 01:08:00,
2013-07-16 21:13:00,81.4,76.8,30.20,NW,318,0.0,0.0,86,0.00,,,0.00,WUHU216DAVISWMX,2013-07-17 01:13:00,
2013-07-16 21:18:00,81.2,77.3,30.20,NW,318,0.0,0.0,88,0.00,,,0.00,WUHU216DAVISWMX,2013-07-17 01:18:00,
2013-07-16 21:23:00,80.9,77.4,30.20,NW,318,0.0,1.0,89,0.00,,,0.00,WUHU216DAVISWMX,2013-07-17 01:23:00,
2013-07-16 21:28:00,80.6,77.4,30.20,NW,318,0.0,1.0,90,0.00,,,0.00,WUHU216DAVISWMX,2013-07-17 01:28:00,
2013-07-16 21:33:00,80.4,77.2,30.20,NW,318,0.0,0.0,90,0.00,,,0.00,WUHU216DAVISWMX,2013-07-17 01:33:00,
2013-07-16 21:38:00,80.3,77.1,30.20,NW,318,0.0,0.0,90,0.00,,,0.00,WUHU216DAVISWMX,2013-07-17 01:38:00,
2013-07-16 21:43:00,80.2,77.0,30.20,NW,318,0.0,0.0,90,0.00,,,0.00,WUHU216DAVISWMX,2013-07-17 01:43:00,
2013-07-16 21:48:00,80.1,76.9,30.20,NW,318,0.0,0.0,90,0.00,,,0.00,WUHU216DAVISWMX,2013-07-17 01:48:00,
2013-07-16 21:53:00,79.9,76.7,30.21,NW,318,0.0,0.0,90,0.00,,,0.00,WUHU216DAVISWMX,2013-07-17 01:53:00,
2013-07-16 21:58:00,80.0,76.8,30.21,NW,318,0.0,0.0,90,0.00,,,0.00,WUHU216DAVISWMX,2013-07-17 01:58:00,
2013-07-16 22:03:00,79.7,76.8,30.21,NW,318,0.0,0.0,91,0.00,,,0.00,WUHU216DAVISWMX,2013-07-17 02:03:00,
2013-07-16 22:08:00,79.5,76.6,30.21,NW,318,0.0,0.0,91,0.00,,,0.00,WUHU216DAVISWMX,2013-07-17 02:08:00,
2013-07-16 22:18:00,79.4,76.9,30.21,NW,318,0.0,0.0,92,0.00,,,0.00,WUHU216DAVISWMX,2013-07-17 02:18:00,
2013-07-16 22:23:00,79.0,76.5,30.21,NW,318,0.0,0.0,92,0.00,,,0.00,WUHU216DAVISWMX,2013-07-17 02:23:00,
2013-07-16 22:28:00,79.0,76.8,30.21,NW,318,0.0,0.0,93,0.00,,,0.00,WUHU216DAVISWMX,2013-07-17 02:28:00,
2013-07-16 22:33:00,78.8,76.6,30.21,NW,318,0.0,0.0,93,0.00,,,0.00,WUHU216DAVISWMX,2013-07-17 02:33:00,
2013-07-16 22:38:00,78.6,76.4,30.21,NW,318,0.0,0.0,93,0.00,,,0.00,WUHU216DAVISWMX,2013-07-17 02:38:00,
2013-07-16 22:43:00,78.6,76.4,30.21,NW,318,0.0,0.0,93,0.00,,,0.00,WUHU216DAVISWMX,2013-07-17 02:43:00,
2013-07-16 22:48:00,78.3,76.1,30.21,NW,318,0.0,0.0,93,0.00,,,0.00,WUHU216DAVISWMX,2013-07-17 02:48:00,
2013-07-16 22:53:00,78.1,75.9,30.21,NW,318,0.0,0.0,93,0.00,,,0.00,WUHU216DAVISWMX,2013-07-17 02:53:00,
2013-07-16 22:58:00,78.2,76.3,30.21,NW,318,0.0,0.0,94,0.00,,,0.00,WUHU216DAVISWMX,2013-07-17 02:58:00,
2013-07-16 23:03:00,77.9,76.0,30.21,NW,318,0.0,0.0,94,0.00,,,0.00,WUHU216DAVISWMX,2013-07-17 03:03:00,
2013-07-16 23:08:00,77.9,76.0,30.21,NW,318,0.0,0.0,94,0.00,,,0.00,WUHU216DAVISWMX,2013-07-17 03:08:00,
2013-07-16 23:13:00,77.5,75.6,30.21,NW,318,0.0,0.0,94,0.00,,,0.00,WUHU216DAVISWMX,2013-07-17 03:13:00,
2013-07-16 23:18:00,77.6,75.7,30.21,NW,318,0.0,0.0,94,0.00,,,0.00,WUHU216DAVISWMX,2013-07-17 03:18:00,
2013-07-16 23:23:00,77.3,75.4,30.21,NW,318,0.0,0.0,94,0.00,,,0.00,WUHU216DAVISWMX,2013-07-17 03:23:00,
2013-07-16 23:28:00,77.4,75.5,30.21,NW,318,0.0,0.0,94,0.00,,,0.00,WUHU216DAVISWMX,2013-07-17 03:28:00,
2013-07-16 23:33:00,77.3,75.4,30.22,NW,318,0.0,0.0,94,0.00,,,0.00,WUHU216DAVISWMX,2013-07-17 03:33:00,
2013-07-16 23:38:00,76.9,75.3,30.21,NW,318,0.0,0.0,95,0.00,,,0.00,WUHU216DAVISWMX,2013-07-17 03:38:00,
2013-07-16 23:43:00,76.8,74.9,30.21,NW,318,0.0,0.0,94,0.00,,,0.00,WUHU216DAVISWMX,2013-07-17 03:43:00,
2013-07-16 23:48:00,76.7,75.1,30.21,NW,318,0.0,0.0,95,0.00,,,0.00,WUHU216DAVISWMX,2013-07-17 03:48:00,
2013-07-16 23:53:00,76.7,75.1,30.21,NW,318,0.0,0.0,95,0.00,,,0.00,WUHU216DAVISWMX,2013-07-17 03:53:00,
2013-07-16 23:58:00,76.4,75.1,30.21,NW,318,0.0,0.0,96,0.00,,,0.00,WUHU216DAVISWMX,2013-07-17 03:58:00,